Mechanicsville, Virginia
Current Conditions -  °F | °C
As of 7:54 PM on Friday 24 Oct 2014 (Local Time) from KOFP Reporting Station
Clear Clear  
Wind Chill: 50°   Ceiling: Unl
Heat Index: 50°   Visibility: 10mi
Dew Point: 48°   Wind: 0mph
Humidity: 93%   Direction: NA
Pressure: 29.96"   Gusts: NA
Location:  37.61°N, 77.38°W
Report Text: KOFP 242354Z AUTO 00000KT 10SM CLR 10/09 A2996 RMK AO2 SLP146 T01000089 10206 20100 53006
Loading
Personal Weather Stations






























Interactive Weather Map New forecast layout! Learn more

10-Day Weather Forecast

Advertisements
Track Severe Weather on mobile